Time;durP1;ratioP1;P1;durP2;ratioP2;P2;SDS_P1;SDS_P2;PMS_P1;PMS_P2;Temp;Humidity;BMP_temperature;BMP_pressure;BME280_temperature;BME280_humidity;BME280_pressure;Samples;Min_cycle;Max_cycle;Signal;HPM_P1;HPM_P2
2024/04/16 00:01:07;;;;;;;8.00;2.15;;;;;;;23.05;31.28;100919.88;4541728;26;19931;-62
2024/04/16 00:03:09;;;;;;;8.80;2.10;;;;;;;23.00;30.90;100914.03;4546982;26;20013;-62
2024/04/16 00:05:11;;;;;;;9.18;2.33;;;;;;;23.08;31.37;100935.69;4558018;25;20006;-61
2024/04/16 00:07:13;;;;;;;7.10;1.90;;;;;;;23.08;30.63;100924.13;4541694;26;20453;-62
2024/04/16 00:09:15;;;;;;;;;;;;;;;23.08;30.58;100922.28;4561635;26;20404;-62
2024/04/16 00:11:17;;;;;;;6.90;2.05;;;;;;;23.07;31.07;100938.50;4543362;25;19931;-62
2024/04/16 00:13:18;;;;;;;8.10;2.17;;;;;;;23.07;30.96;100935.84;4544073;26;20048;-63
2024/04/16 00:15:24;;;;;;;8.43;2.45;;;;;;;23.08;31.15;100933.00;4560094;25;20014;-63
2024/04/16 00:17:27;;;;;;;7.03;2.30;;;;;;;23.06;30.46;100945.72;4541078;26;20096;-62
2024/04/16 00:19:29;;;;;;;7.93;1.80;;;;;;;23.06;30.94;100931.44;4559627;26;20005;-62
2024/04/16 00:21:31;;;;;;;9.27;2.13;;;;;;;23.03;30.58;100919.16;4545229;26;20432;-62
2024/04/16 00:23:33;;;;;;;6.47;1.80;;;;;;;23.08;31.18;100937.53;4573232;25;20078;-63
2024/04/16 00:25:35;;;;;;;6.78;1.85;;;;;;;23.07;31.08;100928.63;4561556;26;20006;-63
2024/04/16 00:27:37;;;;;;;;;;;;;;;23.05;30.57;100935.97;4541715;26;20002;-62
2024/04/16 00:29:38;;;;;;;7.88;2.03;;;;;;;23.02;31.13;100932.69;4556362;26;20291;-62
2024/04/16 00:31:40;;;;;;;;;;;;;;;23.02;30.55;100928.16;4548171;25;20047;-63
2024/04/16 00:33:42;;;;;;;6.82;1.80;;;;;;;23.00;31.28;100926.59;4543470;26;19923;-63
2024/04/16 00:35:44;;;;;;;6.88;1.52;;;;;;;22.96;31.25;100913.44;4561429;26;20024;-65
2024/04/16 00:37:46;;;;;;;;;;;;;;;23.00;30.84;100910.50;4540047;26;20002;-63
2024/04/16 00:39:48;;;;;;;;;;;;;;;22.98;31.36;100910.66;4553788;26;19935;-63
2024/04/16 00:41:50;;;;;;;5.93;1.73;;;;;;;22.96;30.61;100899.19;4550600;25;19924;-63
2024/04/16 00:43:51;;;;;;;;;;;;;;;23.00;30.92;100895.25;4544111;26;20050;-63
2024/04/16 00:45:54;;;;;;;6.78;1.85;;;;;;;22.98;31.23;100889.19;4561635;26;20376;-63
2024/04/16 00:47:56;;;;;;;7.90;2.08;;;;;;;23.00;31.21;100884.53;4541029;26;20082;-64
2024/04/16 00:49:58;;;;;;;6.05;1.50;;;;;;;22.98;30.61;100887.34;4550742;26;20001;-63
2024/04/16 00:52:01;;;;;;;5.53;1.27;;;;;;;23.01;31.14;100878.19;4553039;25;20040;-63
2024/04/16 00:54:03;;;;;;;4.75;1.20;;;;;;;23.01;31.39;100880.03;4540626;26;20002;-64
2024/04/16 00:56:07;;;;;;;6.03;1.60;;;;;;;23.01;30.90;100874.66;4562686;25;20012;-62
2024/04/16 00:58:09;;;;;;;5.88;1.83;;;;;;;22.98;30.54;100871.25;4538813;26;19998;-61
2024/04/16 01:00:12;;;;;;;6.07;1.50;;;;;;;23.02;31.42;100873.69;4549024;26;20073;-61
2024/04/16 01:02:13;;;;;;;;;;;;;;;22.98;31.43;100873.94;4555701;26;20363;-64
2024/04/16 01:04:15;;;;;;;6.07;1.48;;;;;;;22.95;31.44;100878.72;4541072;26;19923;-64
2024/04/16 01:06:17;;;;;;;;;;;;;;;22.96;30.60;100862.47;4563586;26;20020;-62
2024/04/16 01:08:19;;;;;;;;;;;;;;;22.96;30.72;100864.31;4541238;25;19924;-63
2024/04/16 01:10:24;;;;;;;6.07;1.50;;;;;;;22.90;30.99;100848.75;4545752;26;20348;-63
2024/04/16 01:12:26;;;;;;;7.47;1.80;;;;;;;22.94;31.04;100859.09;4556676;26;20025;-62
2024/04/16 01:14:27;;;;;;;;;;;;;;;22.95;30.79;100855.44;4541549;26;20078;-62
2024/04/16 01:16:29;;;;;;;6.25;1.67;;;;;;;22.93;31.31;100854.72;4560554;26;20264;-62
2024/04/16 01:18:31;;;;;;;;;;;;;;;22.93;30.92;100846.66;4541543;26;20006;-62
2024/04/16 01:20:38;;;;;;;6.60;1.60;;;;;;;22.85;30.74;100842.94;4543789;26;19931;-62
2024/04/16 01:22:46;;;;;;;4.65;1.50;;;;;;;22.89;30.60;100847.06;4580854;25;20091;-62
2024/04/16 01:24:48;;;;;;;5.53;1.60;;;;;;;22.88;30.67;100842.66;4601589;25;20001;-62
2024/04/16 01:26:50;;;;;;;6.03;1.73;;;;;;;22.94;31.16;100847.50;4565524;25;20078;-63
2024/04/16 01:28:52;;;;;;;6.43;1.70;;;;;;;22.91;30.96;100866.56;4542626;25;20074;-62
2024/04/16 01:30:53;;;;;;;;;;;;;;;22.91;30.86;100863.88;4543681;26;20413;-62
2024/04/16 01:32:55;;;;;;;7.22;1.65;;;;;;;22.86;31.19;100858.06;4559872;26;19924;-63
2024/04/16 01:34:57;;;;;;;;;;;;;;;22.89;31.21;100847.06;4541077;26;20014;-63
2024/04/16 01:36:59;;;;;;;6.53;1.95;;;;;;;22.86;31.50;100842.81;4555531;26;20333;-63
2024/04/16 01:39:01;;;;;;;10.18;2.10;;;;;;;22.88;31.45;100840.84;4545076;25;20013;-62
2024/04/16 01:41:03;;;;;;;;;;;;;;;22.87;30.78;100847.19;4542990;26;20025;-63
2024/04/16 01:43:05;;;;;;;7.40;1.70;;;;;;;22.85;31.41;100842.94;4560596;26;19931;-62
2024/04/16 01:45:06;;;;;;;;;;;;;;;22.88;31.38;100848.91;4540998;26;20398;-62
2024/04/16 01:47:08;;;;;;;8.20;1.88;;;;;;;22.81;30.91;100845.03;4552546;26;20465;-63
2024/04/16 01:49:10;;;;;;;;;;;;;;;22.85;31.35;100846.47;4547100;26;20055;-62
2024/04/16 01:51:12;;;;;;;7.05;2.30;;;;;;;22.84;30.73;100844.75;4542150;26;19938;-63
2024/04/16 01:53:14;;;;;;;8.65;2.15;;;;;;;22.85;31.05;100840.28;4559974;26;20002;-62
2024/04/16 01:55:16;;;;;;;6.93;2.08;;;;;;;22.87;31.28;100844.53;4540209;26;20017;-62
2024/04/16 01:57:18;;;;;;;6.32;1.83;;;;;;;22.84;30.79;100841.25;4550659;26;20029;-62
2024/04/16 01:59:19;;;;;;;10.80;2.25;;;;;;;22.84;31.45;100835.88;4550798;25;20455;-62
2024/04/16 02:01:22;;;;;;;;;;;;;;;22.86;31.49;100837.44;4540644;26;20002;-63
2024/04/16 02:03:24;;;;;;;7.85;2.13;;;;;;;22.75;30.89;100822.28;4560085;25;19923;-63
2024/04/16 02:05:26;;;;;;;6.75;1.88;;;;;;;22.83;31.05;100835.00;4541004;26;20002;-62
2024/04/16 02:07:28;;;;;;;8.43;2.13;;;;;;;22.83;30.86;100840.38;4551021;26;20355;-63
2024/04/16 02:09:34;;;;;;;7.82;2.17;;;;;;;22.82;30.97;100836.03;4556688;25;20006;-62
2024/04/16 02:11:35;;;;;;;8.15;2.03;;;;;;;22.85;31.10;100848.31;4542949;26;20083;-63
2024/04/16 02:13:38;;;;;;;8.32;2.22;;;;;;;22.77;30.71;100830.19;4550374;26;20444;-62
2024/04/16 02:15:40;;;;;;;5.88;1.90;;;;;;;22.86;30.59;100840.13;4572650;25;20517;-62
2024/04/16 02:17:42;;;;;;;6.68;1.98;;;;;;;22.84;31.16;100847.44;4565821;25;20005;-63
2024/04/16 02:19:44;;;;;;;;;;;;;;;22.82;30.79;100836.03;4558357;26;20061;-62
2024/04/16 02:21:46;;;;;;;;;;;;;;;22.78;31.12;100845.28;4573511;26;19923;-63
2024/04/16 02:23:48;;;;;;;7.47;2.00;;;;;;;22.76;30.84;100828.47;4566260;25;20276;-62
2024/04/16 02:25:53;;;;;;;6.90;1.88;;;;;;;22.77;31.41;100835.53;4543809;25;20013;-62
2024/04/16 02:27:55;;;;;;;9.10;2.40;;;;;;;22.75;31.44;100833.00;4547590;26;20002;-63
2024/04/16 02:29:57;;;;;;;;;;;;;;;22.78;31.42;100839.94;4558689;26;20017;-63
2024/04/16 02:31:58;;;;;;;8.25;2.22;;;;;;;22.73;31.24;100834.97;4542484;26;19923;-62
2024/04/16 02:34:00;;;;;;;7.82;2.00;;;;;;;22.74;30.74;100828.63;4561691;26;20001;-62
2024/04/16 02:36:03;;;;;;;;;;;;;;;22.77;30.80;100833.72;4545902;25;20014;-61
2024/04/16 02:38:08;;;;;;;6.28;2.05;;;;;;;22.72;31.59;100821.69;4544933;26;20214;-61
2024/04/16 02:40:10;;;;;;;7.60;1.90;;;;;;;22.76;31.45;100825.78;4561636;25;20475;-62
2024/04/16 02:42:12;;;;;;;7.03;2.00;;;;;;;22.65;30.74;100802.63;4542426;26;20364;-63
2024/04/16 02:44:13;;;;;;;;;;;;;;;22.75;31.49;100822.28;4560349;26;20462;-62
2024/04/16 02:46:15;;;;;;;7.10;2.10;;;;;;;22.70;31.42;100810.25;4547691;26;19934;-62
2024/04/16 02:48:17;;;;;;;7.68;2.13;;;;;;;22.73;30.83;100808.16;4544470;26;20029;-63
2024/04/16 02:50:19;;;;;;;6.65;1.92;;;;;;;22.73;31.06;100805.47;4562292;26;20075;-62
2024/04/16 02:52:20;;;;;;;7.63;2.10;;;;;;;22.72;31.50;100798.41;4542277;26;20458;-62
2024/04/16 02:54:22;;;;;;;6.75;2.00;;;;;;;22.71;31.44;100785.13;4556486;26;20001;-62
2024/04/16 02:56:24;;;;;;;6.07;1.90;;;;;;;22.67;31.44;100781.88;4550511;25;20017;-62
2024/04/16 02:58:26;;;;;;;;;;;;;;;22.70;31.44;100788.78;4545070;26;20037;-62
2024/04/16 03:00:28;;;;;;;6.25;1.92;;;;;;;22.63;31.54;100781.28;4562698;26;20077;-62
2024/04/16 03:02:30;;;;;;;6.10;1.80;;;;;;;22.67;31.50;100784.53;4542213;26;20002;-62
2024/04/16 03:04:31;;;;;;;;;;;;;;;22.69;30.60;100805.88;4553858;26;20380;-62
2024/04/16 03:06:33;;;;;;;8.52;2.25;;;;;;;22.63;31.40;100789.31;4553034;26;20375;-62
2024/04/16 03:08:35;;;;;;;;;;;;;;;22.67;31.56;100792.59;4544063;26;20017;-61
2024/04/16 03:10:38;;;;;;;6.47;1.70;;;;;;;22.56;31.14;100782.78;4561234;26;19924;-62
2024/04/16 03:12:40;;;;;;;6.35;1.73;;;;;;;22.64;31.27;100792.88;4542300;26;20119;-62
2024/04/16 03:14:42;;;;;;;9.18;1.98;;;;;;;22.67;30.84;100795.28;4550724;26;20050;-62
2024/04/16 03:16:44;;;;;;;;;;;;;;;22.68;31.33;100802.34;4555602;26;20076;-63
2024/04/16 03:18:47;;;;;;;7.07;2.10;;;;;;;22.59;31.55;100793.25;4542078;26;19936;-62
2024/04/16 03:21:02;;;;;;;5.93;1.67;;;;;;;22.62;30.66;100806.38;4564320;26;20073;-62
2024/04/16 03:23:04;;;;;;;7.38;2.22;;;;;;;22.60;30.76;100797.66;4576549;25;20012;-62
2024/04/16 03:25:06;;;;;;;7.13;1.90;;;;;;;22.61;30.98;100810.06;4576263;25;20017;-62
2024/04/16 03:27:08;;;;;;;7.90;2.08;;;;;;;22.63;31.35;100799.22;4554826;25;20215;-62
2024/04/16 03:29:09;;;;;;;5.93;1.48;;;;;;;22.62;31.44;100792.13;4541941;26;20386;-61
2024/04/16 03:31:11;;;;;;;;;;;;;;;22.64;30.73;100782.97;4554334;26;20105;-62
2024/04/16 03:33:13;;;;;;;6.22;1.92;;;;;;;22.59;31.43;100787.03;4572141;26;19968;-61
2024/04/16 03:35:15;;;;;;;;;;;;;;;22.62;31.55;100790.28;4565401;25;20081;-62
2024/04/16 03:37:17;;;;;;;6.72;1.85;;;;;;;22.56;31.55;100793.50;4556591;26;19991;-62
2024/04/16 03:39:18;;;;;;;;;;;;;;;22.62;31.42;100795.66;4572892;25;20005;-62
2024/04/16 03:41:22;;;;;;;6.35;1.73;;;;;;;22.57;31.58;100786.34;4550981;26;19943;-62
2024/04/16 03:43:27;;;;;;;7.47;1.90;;;;;;;22.60;31.01;100789.59;4571177;26;20001;-61
2024/04/16 03:45:28;;;;;;;5.32;1.42;;;;;;;22.61;31.48;100794.00;4566554;25;20001;-61
2024/04/16 03:47:30;;;;;;;7.40;2.00;;;;;;;22.62;31.06;100800.19;4554742;26;20013;-62
2024/04/16 03:49:32;;;;;;;;;;;;;;;22.61;30.91;100785.06;4572324;25;20447;-62
2024/04/16 03:51:34;;;;;;;;;;;;;;;22.56;31.32;100788.16;4553019;26;19931;-63
2024/04/16 03:53:36;;;;;;;7.57;1.90;;;;;;;22.54;31.47;100798.16;4567989;26;20365;-61
2024/04/16 03:55:38;;;;;;;5.45;1.52;;;;;;;22.58;31.31;100796.06;4569326;25;20339;-61
2024/04/16 03:57:40;;;;;;;7.13;2.20;;;;;;;22.52;31.04;100783.16;4551625;26;20030;-62
2024/04/16 04:01:49;;;;;;;5.63;1.40;;;;;;;22.57;30.81;100794.38;4554185;25;20002;-62
2024/04/16 04:03:51;;;;;;;8.30;2.30;;;;;;;22.57;31.46;100783.66;4566278;26;20437;-63
2024/04/16 04:05:54;;;;;;;7.07;2.13;;;;;;;22.54;31.17;100782.09;4569134;25;20050;-61
2024/04/16 04:07:56;;;;;;;5.00;1.73;;;;;;;22.57;30.86;100784.50;4551054;25;20017;-60
2024/04/16 04:09:58;;;;;;;7.43;2.10;;;;;;;22.57;31.35;100778.28;4571833;25;20006;-63
2024/04/16 04:12:00;;;;;;;8.90;2.10;;;;;;;22.56;31.61;100787.31;4556562;26;20002;-62
2024/04/16 04:14:01;;;;;;;6.97;1.90;;;;;;;22.57;31.46;100795.22;4564302;26;20012;-62
2024/04/16 04:16:03;;;;;;;;;;;;;;;22.59;31.48;100795.94;4569676;25;20001;-62
2024/04/16 04:18:05;;;;;;;5.32;1.60;;;;;;;22.49;31.60;100789.66;4550527;25;19931;-61
2024/04/16 04:20:09;;;;;;;6.38;1.70;;;;;;;22.52;31.47;100799.25;4571780;25;20017;-62
2024/04/16 04:22:11;;;;;;;7.50;1.92;;;;;;;22.55;31.14;100815.91;4566545;25;20034;-62
2024/04/16 04:24:17;;;;;;;8.43;2.00;;;;;;;22.53;31.47;100807.19;4582288;25;20037;-62
2024/04/16 04:26:33;;;;;;;8.32;1.90;;;;;;;22.51;30.89;100801.09;4568823;25;20042;-62
2024/04/16 04:28:35;;;;;;;7.28;1.83;;;;;;;22.54;31.45;100800.84;4549420;25;20005;-62
2024/04/16 04:30:37;;;;;;;7.20;1.95;;;;;;;22.53;31.13;100807.19;4571484;25;20002;-62
2024/04/16 04:32:38;;;;;;;;;;;;;;;22.56;30.99;100814.13;4558317;25;20073;-61
2024/04/16 04:34:40;;;;;;;8.35;1.90;;;;;;;22.51;31.29;100806.47;4547503;26;19924;-62
2024/04/16 04:36:42;;;;;;;;;;;;;;;22.53;31.74;100819.72;4542435;26;20009;-64
2024/04/16 04:38:44;;;;;;;8.13;1.80;;;;;;;22.50;31.71;100820.84;4561536;26;20013;-62
2024/04/16 04:40:46;;;;;;;8.05;2.13;;;;;;;22.53;31.37;100822.41;4541416;26;20013;-62
2024/04/16 04:42:49;;;;;;;5.95;1.77;;;;;;;22.54;31.50;100816.06;4552346;26;20318;-62
2024/04/16 04:44:53;;;;;;;7.50;1.90;;;;;;;22.49;31.61;100811.09;4551869;25;20013;-62
2024/04/16 04:46:58;;;;;;;7.72;1.88;;;;;;;22.53;31.39;100817.03;4542840;26;20006;-62
2024/04/16 04:48:59;;;;;;;9.02;1.95;;;;;;;22.54;31.36;100816.06;4561169;25;20005;-62
2024/04/16 04:51:02;;;;;;;6.93;1.65;;;;;;;22.53;31.68;100815.22;4539616;26;20006;-61
2024/04/16 04:53:05;;;;;;;9.00;2.53;;;;;;;22.51;31.79;100816.34;4550942;26;20065;-62
2024/04/16 04:55:08;;;;;;;6.10;1.90;;;;;;;22.45;31.21;100815.84;4552773;25;20076;-62
2024/04/16 04:57:10;;;;;;;6.57;1.80;;;;;;;22.47;31.67;100819.25;4541945;26;20002;-62
2024/04/16 04:59:11;;;;;;;;;;;;;;;22.49;31.90;100816.44;4562869;26;20074;-62
2024/04/16 05:01:13;;;;;;;7.18;1.77;;;;;;;22.46;31.05;100820.25;4540716;26;19931;-65
2024/04/16 05:03:15;;;;;;;;;;;;;;;22.46;31.33;100822.09;4549236;26;20065;-62
2024/04/16 05:05:17;;;;;;;9.80;2.13;;;;;;;22.43;31.42;100817.84;4555607;26;20373;-62
2024/04/16 05:07:19;;;;;;;6.70;1.88;;;;;;;22.47;31.70;100813.91;4541041;26;20006;-62
2024/04/16 05:09:20;;;;;;;;;;;;;;;22.47;31.49;100821.09;4563035;26;20001;-63
2024/04/16 05:11:22;;;;;;;5.82;1.63;;;;;;;22.40;31.70;100819.94;4541313;26;19931;-62
2024/04/16 05:13:24;;;;;;;6.57;1.88;;;;;;;22.43;31.51;100819.66;4545423;26;20002;-62
2024/04/16 05:15:26;;;;;;;5.55;1.98;;;;;;;22.44;31.28;100819.53;4557638;25;20459;-62
2024/04/16 05:17:28;;;;;;;7.32;1.90;;;;;;;22.47;31.41;100819.25;4540881;26;20002;-62
2024/04/16 05:19:30;;;;;;;;;;;;;;;22.44;31.47;100821.34;4559915;26;20016;-62
2024/04/16 05:21:32;;;;;;;6.05;1.65;;;;;;;22.38;32.11;100812.00;4544188;26;19924;-62
2024/04/16 05:23:35;;;;;;;;;;;;;;;22.42;31.38;100812.59;4573371;25;20078;-62
2024/04/16 05:25:37;;;;;;;8.32;2.20;;;;;;;22.38;32.21;100805.75;4551098;26;20254;-63
2024/04/16 05:27:39;;;;;;;5.45;1.83;;;;;;;22.40;31.56;100812.72;4570986;26;20101;-62
2024/04/16 05:29:41;;;;;;;7.07;1.85;;;;;;;22.44;31.31;100822.22;4553116;25;20002;-62
2024/04/16 05:31:43;;;;;;;6.80;1.83;;;;;;;22.46;31.77;100822.91;4565022;26;20005;-62
2024/04/16 05:33:45;;;;;;;7.03;1.52;;;;;;;22.45;32.08;100810.50;4568151;25;20468;-62
2024/04/16 05:35:50;;;;;;;6.07;1.88;;;;;;;22.44;32.16;100810.63;4550161;25;20002;-62
2024/04/16 05:37:52;;;;;;;6.75;1.98;;;;;;;22.44;31.77;100824.91;4570852;25;20002;-62
2024/04/16 05:39:56;;;;;;;6.25;1.90;;;;;;;22.47;31.38;100824.63;4555325;26;20002;-62
2024/04/16 05:41:58;;;;;;;6.63;2.22;;;;;;;22.40;31.83;100806.53;4563523;26;20006;-61
2024/04/16 05:44:00;;;;;;;7.60;1.83;;;;;;;22.41;31.45;100805.56;4568073;25;20018;-62
2024/04/16 05:46:02;;;;;;;6.05;1.67;;;;;;;22.43;31.57;100816.97;4549609;25;20028;-62
2024/04/16 05:48:04;;;;;;;;;;;;;;;22.44;31.38;100824.03;4571368;25;20001;-62
2024/04/16 05:50:06;;;;;;;7.78;2.17;;;;;;;22.38;31.95;100817.34;4557406;25;19924;-61
2024/04/16 05:52:08;;;;;;;;;;;;;;;22.39;31.49;100823.56;4561326;26;20005;-64
2024/04/16 05:54:11;;;;;;;6.63;1.95;;;;;;;22.33;32.19;100817.72;4567281;25;20269;-62
2024/04/16 05:56:12;;;;;;;;;;;;;;;22.40;32.18;100834.16;4550370;26;20002;-62
2024/04/16 05:58:15;;;;;;;7.35;2.10;;;;;;;22.36;32.15;100824.66;4570683;26;20481;-61
2024/04/16 06:00:17;;;;;;;7.03;1.98;;;;;;;22.37;31.95;100831.72;4559338;25;20034;-61
2024/04/16 06:02:19;;;;;;;6.93;1.85;;;;;;;22.38;31.67;100825.38;4557980;26;20013;-62
2024/04/16 06:04:21;;;;;;;8.80;2.22;;;;;;;22.42;32.03;100825.97;4570181;26;20074;-61
2024/04/16 06:06:23;;;;;;;9.60;2.22;;;;;;;22.40;32.25;100817.25;4547921;26;20002;-62
2024/04/16 06:08:25;;;;;;;;;;;;;;;22.44;31.91;100821.34;4571107;25;20016;-62
2024/04/16 06:10:27;;;;;;;5.70;1.60;;;;;;;22.37;32.23;100814.78;4562721;25;19923;-62
2024/04/16 06:12:29;;;;;;;;;;;;;;;22.42;32.17;100829.53;4555774;26;20511;-62
2024/04/16 06:14:31;;;;;;;5.72;1.92;;;;;;;22.37;31.49;100823.69;4570063;25;20368;-62
2024/04/16 06:16:34;;;;;;;6.75;2.00;;;;;;;22.39;32.04;100835.13;4548127;25;20346;-61
2024/04/16 06:18:35;;;;;;;6.32;1.85;;;;;;;22.39;31.73;100827.09;4569228;26;20050;-60
2024/04/16 06:20:37;;;;;;;7.68;2.05;;;;;;;22.38;31.86;100825.38;4565119;25;20005;-61
2024/04/16 06:22:39;;;;;;;7.70;2.03;;;;;;;22.40;31.82;100831.47;4563555;25;20419;-62
2024/04/16 06:24:41;;;;;;;7.03;2.03;;;;;;;22.44;31.90;100829.41;4600982;25;19997;-62
2024/04/16 06:26:43;;;;;;;;;;;;;;;22.43;32.30;100838.41;4566651;25;20312;-62
2024/04/16 06:28:45;;;;;;;5.88;1.83;;;;;;;22.37;32.27;100828.19;4542940;26;19924;-63
2024/04/16 06:30:47;;;;;;;;;;;;;;;22.44;31.85;100842.78;4541067;26;20006;-62
2024/04/16 06:32:49;;;;;;;7.85;1.75;;;;;;;22.43;31.68;100841.97;4559972;26;20266;-62
2024/04/16 06:34:51;;;;;;;8.40;2.33;;;;;;;22.42;32.40;100831.34;4539553;26;20013;-62
2024/04/16 06:36:53;;;;;;;5.95;1.88;;;;;;;22.43;32.67;100841.09;4555337;26;20002;-62
2024/04/16 06:38:54;;;;;;;8.38;2.10;;;;;;;22.43;31.65;100836.59;4545991;26;20054;-62
2024/04/16 06:40:56;;;;;;;;;;;;;;;22.44;32.39;100842.78;4542516;26;20001;-62
2024/04/16 06:43:00;;;;;;;6.70;2.38;;;;;;;22.41;32.03;100827.00;4559625;26;19931;-62
2024/04/16 06:45:05;;;;;;;8.05;2.08;;;;;;;22.33;32.58;100831.13;4537629;26;20505;-62
2024/04/16 06:47:07;;;;;;;8.18;2.13;;;;;;;22.37;32.43;100845.13;4553359;26;20002;-63
2024/04/16 06:49:09;;;;;;;7.80;2.22;;;;;;;22.38;32.38;100852.19;4547413;25;20328;-62
2024/04/16 06:51:19;;;;;;;9.32;2.25;;;;;;;22.41;32.04;100859.16;4542803;26;20001;-62
2024/04/16 06:53:21;;;;;;;;;;;;;;;22.47;32.56;100866.66;4563224;26;20021;-62
2024/04/16 06:55:22;;;;;;;7.38;2.00;;;;;;;22.42;32.37;100850.97;4540576;26;19923;-62
2024/04/16 06:57:25;;;;;;;;;;;;;;;22.45;31.86;100857.91;4555995;26;20343;-62
2024/04/16 06:59:27;;;;;;;6.10;1.85;;;;;;;22.33;32.14;100843.66;4551072;25;19924;-62
2024/04/16 07:01:29;;;;;;;7.30;2.08;;;;;;;22.42;32.67;100850.09;4544281;26;20006;-62
2024/04/16 07:03:30;;;;;;;;;;;;;;;22.44;31.85;100859.75;4563487;26;20077;-62
2024/04/16 07:05:32;;;;;;;7.75;2.20;;;;;;;22.37;32.67;100853.16;4542310;26;19924;-62
2024/04/16 07:07:34;;;;;;;7.50;2.03;;;;;;;22.39;32.71;100859.25;4552648;26;20020;-62
2024/04/16 07:09:35;;;;;;;;;;;;;;;22.42;32.73;100861.69;4554464;25;20006;-62
2024/04/16 07:11:38;;;;;;;6.65;2.13;;;;;;;22.38;32.44;100854.88;4542724;26;19924;-62
2024/04/16 07:13:43;;;;;;;7.75;2.10;;;;;;;22.42;31.73;100867.06;4563545;25;20049;-62
2024/04/16 07:15:46;;;;;;;8.10;2.10;;;;;;;22.41;31.92;100856.47;4541775;26;20009;-61
2024/04/16 07:17:47;;;;;;;;;;;;;;;22.44;31.93;100872.28;4551290;26;20061;-62
2024/04/16 07:19:49;;;;;;;7.10;2.00;;;;;;;22.36;32.08;100862.16;4555467;26;19924;-62
2024/04/16 07:21:51;;;;;;;;;;;;;;;22.41;31.96;100862.66;4542540;26;20006;-62
2024/04/16 07:23:54;;;;;;;10.13;2.20;;;;;;;22.38;32.04;100864.72;4553582;25;19931;-63
2024/04/16 07:25:56;;;;;;;6.28;1.83;;;;;;;22.37;31.88;100861.19;4541367;26;20528;-62
2024/04/16 07:27:58;;;;;;;7.82;2.05;;;;;;;22.45;32.61;100873.97;4547897;26;20026;-63
2024/04/16 07:30:00;;;;;;;;;;;;;;;22.44;32.65;100874.94;4558411;26;20002;-62
2024/04/16 07:32:02;;;;;;;6.80;2.17;;;;;;;22.40;32.29;100876.19;4541631;26;20323;-62
2024/04/16 07:34:04;;;;;;;5.38;1.60;;;;;;;22.40;32.38;100868.16;4561784;26;20001;-62
2024/04/16 07:36:08;;;;;;;7.40;2.22;;;;;;;22.41;32.35;100868.03;4543339;25;20082;-62
2024/04/16 07:38:13;;;;;;;6.43;1.83;;;;;;;22.41;32.87;100864.50;4545960;26;20010;-63
2024/04/16 07:40:15;;;;;;;8.40;1.73;;;;;;;22.43;32.65;100883.97;4558786;25;20021;-62
2024/04/16 07:42:16;;;;;;;;;;;;;;;22.41;32.96;100884.09;4542423;26;20006;-62
2024/04/16 07:44:19;;;;;;;8.43;1.90;;;;;;;22.36;32.05;100870.22;4560571;26;19955;-62
2024/04/16 07:46:21;;;;;;;6.22;2.10;;;;;;;22.41;32.41;100872.53;4545129;25;20075;-62
2024/04/16 07:48:23;;;;;;;;;;;;;;;22.40;32.88;100877.03;4544476;26;20025;-62
2024/04/16 07:50:25;;;;;;;7.13;2.10;;;;;;;22.38;32.79;100870.06;4552180;26;19923;-62
2024/04/16 07:52:27;;;;;;;5.90;1.83;;;;;;;22.42;32.52;100883.13;4572617;25;20001;-63
2024/04/16 07:54:29;;;;;;;6.55;1.95;;;;;;;22.38;32.44;100851.31;4555164;25;20484;-63
2024/04/16 07:56:31;;;;;;;;;;;;;;;22.44;32.29;100883.00;4566582;26;20006;-62
2024/04/16 07:58:33;;;;;;;7.30;1.75;;;;;;;22.40;32.40;100870.84;4569116;26;19924;-62
2024/04/16 08:00:35;;;;;;;;;;;;;;;22.47;33.15;100872.88;4551866;26;20012;-63
2024/04/16 08:02:36;;;;;;;7.88;1.80;;;;;;;22.40;33.00;100865.47;4570257;26;19923;-63
2024/04/16 08:04:39;;;;;;;7.32;1.98;;;;;;;22.44;32.91;100875.81;4558001;25;20431;-62
2024/04/16 08:06:41;;;;;;;7.28;2.00;;;;;;;22.40;32.98;100866.31;4562890;26;20073;-62
2024/04/16 08:08:43;;;;;;;;;;;;;;;22.44;33.17;100875.81;4569598;25;20014;-62
2024/04/16 08:10:45;;;;;;;7.90;2.08;;;;;;;22.40;32.54;100876.19;4550670;25;20366;-62
2024/04/16 08:12:47;;;;;;;;;;;;;;;22.46;32.76;100881.03;4572590;25;20005;-62
2024/04/16 08:14:49;;;;;;;;;;;;;;;22.43;32.47;100881.28;4561093;25;19930;-62
2024/04/16 08:16:51;;;;;;;6.97;2.08;;;;;;;22.40;33.02;100874.34;4560429;26;20318;-62
2024/04/16 08:18:53;;;;;;;6.90;1.80;;;;;;;22.45;32.39;100873.97;4570562;25;20017;-63
2024/04/16 08:20:55;;;;;;;7.13;2.00;;;;;;;22.46;33.29;100867.66;4550093;26;20467;-62
2024/04/16 08:22:57;;;;;;;5.65;1.80;;;;;;;22.52;32.89;100883.22;4587384;25;20076;-63
2024/04/16 08:24:59;;;;;;;6.20;1.85;;;;;;;22.48;32.44;100869.22;4578219;25;20005;-63
2024/04/16 08:27:01;;;;;;;5.95;1.70;;;;;;;22.51;32.82;100870.78;4553520;26;20002;-63
2024/04/16 08:29:03;;;;;;;;;;;;;;;22.58;33.09;100885.38;4542063;26;20021;-61
2024/04/16 08:31:04;;;;;;;6.80;2.00;;;;;;;22.53;33.17;100874.19;4560026;26;19930;-62
2024/04/16 08:33:07;;;;;;;5.00;1.50;;;;;;;22.56;32.43;100879.28;4541142;26;20083;-62
2024/04/16 08:35:11;;;;;;;6.50;1.60;;;;;;;22.55;32.69;100884.78;4546400;26;20002;-62
2024/04/16 08:37:14;;;;;;;6.03;2.00;;;;;;;22.52;33.37;100872.50;4557387;25;20487;-62
2024/04/16 08:39:16;;;;;;;6.30;1.67;;;;;;;22.52;32.83;100883.22;4538913;26;20002;-63
2024/04/16 08:41:20;;;;;;;7.00;1.65;;;;;;;22.53;33.24;100881.38;4561960;26;20002;-62
2024/04/16 08:43:23;;;;;;;;;;;;;;;22.41;33.22;100873.38;4543128;26;20093;-62
2024/04/16 08:45:25;;;;;;;5.25;1.45;;;;;;;22.47;32.75;100890.78;4545108;26;19923;-62
2024/04/16 08:47:27;;;;;;;;;;;;;;;22.49;32.74;100895.03;4559480;25;20017;-62
2024/04/16 08:49:30;;;;;;;5.97;1.58;;;;;;;22.47;32.63;100896.16;4540940;26;20310;-62
2024/04/16 08:51:34;;;;;;;5.28;1.90;;;;;;;22.49;33.30;100888.81;4559475;26;20016;-62
2024/04/16 08:53:37;;;;;;;5.55;1.83;;;;;;;22.48;32.85;100887.13;4543573;25;20475;-62
2024/04/16 08:55:41;;;;;;;5.15;1.40;;;;;;;22.53;33.19;100887.59;4543526;26;20008;-65
2024/04/16 08:57:45;;;;;;;5.43;1.60;;;;;;;22.53;32.83;100886.72;4559986;25;20441;-62
2024/04/16 08:59:47;;;;;;;6.60;1.77;;;;;;;22.51;32.96;100892.22;4540866;26;20013;-62
2024/04/16 09:01:49;;;;;;;;;;;;;;;22.51;33.26;100891.38;4559155;26;20073;-62
2024/04/16 09:03:51;;;;;;;4.90;1.63;;;;;;;22.44;32.96;100891.91;4545553;25;20373;-61
2024/04/16 09:05:56;;;;;;;4.65;1.27;;;;;;;22.51;33.31;100897.59;4543114;26;20145;-62
2024/04/16 09:07:58;;;;;;;3.83;1.30;;;;;;;22.49;33.37;100889.69;4560653;26;20006;-62
2024/04/16 09:10:00;;;;;;;;;;;;;;;22.50;33.46;100893.19;4541289;26;20005;-61
2024/04/16 09:12:03;;;;;;;4.18;1.27;;;;;;;22.45;33.35;100893.56;4556525;26;19924;-62
2024/04/16 09:14:05;;;;;;;4.63;1.27;;;;;;;22.47;32.63;100897.00;4545996;26;20002;-63
2024/04/16 09:16:06;;;;;;;;;;;;;;;22.52;33.62;100898.41;4543386;26;20017;-62
2024/04/16 09:18:08;;;;;;;3.92;1.20;;;;;;;22.49;32.93;100896.84;4561161;26;19924;-62
2024/04/16 09:20:13;;;;;;;4.32;1.23;;;;;;;22.51;32.81;100889.53;4540552;26;20010;-62
2024/04/16 09:22:17;;;;;;;4.65;1.20;;;;;;;22.54;32.99;100896.47;4558659;25;20332;-63
2024/04/16 09:24:20;;;;;;;4.90;1.10;;;;;;;22.57;33.02;100885.50;4578796;25;20005;-62
2024/04/16 09:26:22;;;;;;;4.05;1.20;;;;;;;22.55;32.64;100876.75;4568103;25;20005;-62
2024/04/16 09:28:24;;;;;;;4.13;0.90;;;;;;;22.60;33.60;100895.97;4549910;26;20005;-63
2024/04/16 09:30:26;;;;;;;3.28;0.75;;;;;;;22.54;32.85;100878.59;4571064;25;20014;-62
2024/04/16 09:32:28;;;;;;;4.65;1.25;;;;;;;22.62;32.75;100894.00;4558003;25;20006;-62
2024/04/16 09:34:31;;;;;;;3.85;1.17;;;;;;;22.63;33.58;100893.88;4550649;25;20340;-62
2024/04/16 09:36:34;;;;;;;4.45;0.93;;;;;;;22.63;33.20;100896.56;4541930;26;20026;-62
2024/04/16 09:38:46;;;;;;;4.35;1.05;;;;;;;22.65;32.88;100896.44;4560695;26;19998;-62
2024/04/16 09:40:49;;;;;;;4.65;1.45;;;;;;;22.66;33.37;100892.75;4540361;26;20006;-62
2024/04/16 09:42:51;;;;;;;5.80;1.42;;;;;;;22.67;32.79;100902.50;4552743;26;20025;-62
2024/04/16 09:44:54;;;;;;;;;;;;;;;22.65;32.92;100913.38;4550578;26;20003;-63